createdAt,value
2022-12-23T00:00:08.314Z,6.55
2022-12-23T00:03:14.951Z,6.55
2022-12-23T00:06:01.662Z,6.61
2022-12-23T00:08:48.211Z,6.61
2022-12-23T00:11:34.663Z,6.60
2022-12-23T00:14:39.671Z,6.60
2022-12-23T00:17:26.187Z,6.57
2022-12-23T00:20:13.838Z,6.52
2022-12-23T00:23:06.378Z,6.45
2022-12-23T00:25:52.870Z,6.36
2022-12-23T00:28:39.294Z,6.27
2022-12-23T00:31:25.973Z,6.25
2022-12-23T00:34:13.083Z,6.30
2022-12-23T00:36:59.495Z,6.38
2022-12-23T00:40:06.748Z,6.44
2022-12-23T00:42:53.662Z,6.48
2022-12-23T00:45:40.287Z,6.52
2022-12-23T00:48:45.347Z,6.54
2022-12-23T00:51:32.121Z,6.57
2022-12-23T00:54:18.455Z,6.62
2022-12-23T00:57:05.013Z,6.62
2022-12-23T00:59:51.249Z,6.64
2022-12-23T01:02:56.806Z,6.68
2022-12-23T01:05:43.409Z,6.71
2022-12-23T01:08:29.793Z,6.74
2022-12-23T01:11:16.234Z,6.76
2022-12-23T01:14:02.467Z,6.77
2022-12-23T01:16:49.065Z,6.75
2022-12-23T01:19:35.528Z,6.75
2022-12-23T01:22:21.799Z,6.72
2022-12-23T01:25:08.408Z,6.67
2022-12-23T01:27:54.534Z,6.59
2022-12-23T01:30:40.863Z,6.50
2022-12-23T01:33:27.344Z,6.46
2022-12-23T01:36:13.742Z,6.44
2022-12-23T01:39:00.170Z,6.34
2022-12-23T01:42:05.050Z,6.27
2022-12-23T01:45:01.409Z,6.20
2022-12-23T01:47:55.077Z,6.10
2022-12-23T01:50:53.429Z,5.97
2022-12-23T01:53:45.401Z,5.88
2022-12-23T01:56:38.889Z,5.81
2022-12-23T01:59:44.046Z,5.76
2022-12-23T02:02:49.506Z,5.70
2022-12-23T02:05:35.687Z,5.64
2022-12-23T02:08:40.654Z,5.61
2022-12-23T02:11:51.476Z,5.60
2022-12-23T02:15:05.538Z,5.56
2022-12-23T02:18:07.178Z,5.50
2022-12-23T02:21:05.986Z,5.43
2022-12-23T02:24:25.624Z,5.36
2022-12-23T02:27:22.547Z,5.29
2022-12-23T02:30:30.205Z,5.27
2022-12-23T02:33:57.869Z,5.27
2022-12-23T02:36:56.309Z,5.26
2022-12-23T02:39:47.108Z,5.26
2022-12-23T02:42:43.496Z,5.19
2022-12-23T02:45:29.618Z,5.15
2022-12-23T02:48:34.503Z,5.12
2022-12-23T02:51:22.333Z,5.10
2022-12-23T02:54:11.472Z,5.08
2022-12-23T02:56:58.432Z,5.07
2022-12-23T02:59:46.687Z,5.09
2022-12-23T03:02:34.395Z,5.10
2022-12-23T03:05:27.084Z,5.13
2022-12-23T03:08:18.995Z,5.12
2022-12-23T03:11:06.326Z,5.11
2022-12-23T03:14:07.020Z,5.06
2022-12-23T03:17:20.928Z,5.00
2022-12-23T03:20:17.086Z,4.99
2022-12-23T03:23:19.202Z,5.03
2022-12-23T03:26:16.430Z,4.99
2022-12-23T03:29:10.219Z,5.02
2022-12-23T03:31:58.324Z,5.05
2022-12-23T03:34:46.502Z,5.08
2022-12-23T03:37:33.963Z,5.14
2022-12-23T03:40:23.396Z,5.11
2022-12-23T03:43:30.974Z,5.04
2022-12-23T03:46:19.701Z,4.99
2022-12-23T03:49:08.982Z,4.92
2022-12-23T03:51:58.714Z,4.90
2022-12-23T03:54:55.575Z,4.91
2022-12-23T03:57:45.042Z,4.89
2022-12-23T04:00:34.995Z,4.89
2022-12-23T04:03:34.638Z,4.92
2022-12-23T04:06:21.019Z,5.01
2022-12-23T04:09:07.004Z,5.04
2022-12-23T04:11:53.692Z,5.07
2022-12-23T04:14:45.622Z,5.02
2022-12-23T04:17:32.872Z,4.96
2022-12-23T04:20:19.693Z,4.96
2022-12-23T04:23:06.033Z,4.97
2022-12-23T04:25:52.800Z,4.99
2022-12-23T04:28:38.830Z,5.00
2022-12-23T04:31:25.459Z,5.05
2022-12-23T04:34:11.795Z,5.07
2022-12-23T04:36:57.988Z,5.11
2022-12-23T04:39:44.406Z,5.16
2022-12-23T04:42:30.980Z,5.21
2022-12-23T04:45:17.410Z,5.23
2022-12-23T04:48:03.713Z,5.25
2022-12-23T04:50:50.226Z,5.27
2022-12-23T04:53:37.112Z,5.26
2022-12-23T04:56:23.421Z,5.27
2022-12-23T04:59:10.553Z,5.28
2022-12-23T05:01:58.011Z,5.31
2022-12-23T05:04:44.621Z,5.35
2022-12-23T05:07:31.270Z,5.39
2022-12-23T05:10:17.576Z,5.41
2022-12-23T05:13:04.040Z,5.40
2022-12-23T05:15:50.986Z,5.40
2022-12-23T05:18:37.525Z,5.38
2022-12-23T05:21:23.875Z,5.40
2022-12-23T05:24:10.177Z,5.42
2022-12-23T05:27:00.048Z,5.46
2022-12-23T05:29:46.969Z,5.47
2022-12-23T05:32:33.492Z,5.46
2022-12-23T05:35:19.962Z,5.45
2022-12-23T05:38:06.388Z,5.45
2022-12-23T05:40:52.523Z,5.43
2022-12-23T05:43:38.855Z,5.43
2022-12-23T05:46:27.046Z,5.47
2022-12-23T05:49:13.858Z,5.53
2022-12-23T05:52:00.444Z,5.55
2022-12-23T05:54:47.126Z,5.56
2022-12-23T05:57:33.692Z,5.57
2022-12-23T06:00:20.610Z,5.58
2022-12-23T06:03:07.318Z,5.61
2022-12-23T06:05:54.600Z,5.66
2022-12-23T06:08:40.972Z,5.71
2022-12-23T06:11:27.910Z,5.75
2022-12-23T06:14:14.434Z,5.78
2022-12-23T06:17:00.647Z,5.81
2022-12-23T06:19:47.496Z,5.83
2022-12-23T06:22:33.959Z,5.85
2022-12-23T06:25:20.254Z,5.89
2022-12-23T06:28:08.061Z,5.95
2022-12-23T06:30:57.408Z,6.05
2022-12-23T06:33:44.240Z,6.12
2022-12-23T06:36:30.554Z,6.16
2022-12-23T06:39:16.812Z,6.14
2022-12-23T06:42:03.320Z,6.13
2022-12-23T06:44:49.905Z,6.13
2022-12-23T06:47:36.585Z,6.12
2022-12-23T06:50:23.006Z,6.14
2022-12-23T06:53:09.395Z,6.17
2022-12-23T06:56:01.850Z,6.20
2022-12-23T06:58:48.518Z,6.24
2022-12-23T07:01:34.724Z,6.30
2022-12-23T07:04:21.487Z,6.33
2022-12-23T07:07:07.988Z,6.37
2022-12-23T07:09:54.468Z,6.41
2022-12-23T07:12:44.787Z,6.44
2022-12-23T07:15:33.532Z,6.46
2022-12-23T07:18:22.021Z,6.45
2022-12-23T07:21:16.317Z,6.45
2022-12-23T07:24:07.244Z,6.44
2022-12-23T07:26:55.916Z,6.47
2022-12-23T07:29:42.463Z,6.51
2022-12-23T07:32:28.997Z,6.54
2022-12-23T07:35:15.395Z,6.58
2022-12-23T07:38:01.739Z,6.63
2022-12-23T07:40:49.127Z,6.68
2022-12-23T07:43:35.351Z,6.72
2022-12-23T07:46:21.628Z,6.78
2022-12-23T07:49:08.295Z,6.83
2022-12-23T07:51:54.513Z,6.87
2022-12-23T07:54:40.823Z,6.94
2022-12-23T07:57:27.279Z,7.00
2022-12-23T08:00:14.291Z,7.07
2022-12-23T08:03:00.896Z,7.12
2022-12-23T08:05:47.568Z,7.14
2022-12-23T08:08:33.975Z,7.15
2022-12-23T08:11:20.154Z,7.16
2022-12-23T08:14:07.111Z,7.17
2022-12-23T08:16:53.505Z,7.17
2022-12-23T08:19:39.823Z,7.18
2022-12-23T08:22:26.059Z,7.19
2022-12-23T08:25:12.591Z,7.20
2022-12-23T08:27:59.082Z,7.19
2022-12-23T08:30:45.810Z,7.20
2022-12-23T08:33:32.748Z,7.20
2022-12-23T08:36:23.930Z,7.23
2022-12-23T08:39:10.990Z,7.26
2022-12-23T08:41:57.096Z,7.29
2022-12-23T08:44:43.348Z,7.32
2022-12-23T08:47:29.666Z,7.32
2022-12-23T08:50:15.918Z,7.33
2022-12-23T08:53:02.159Z,7.35
2022-12-23T08:55:48.470Z,7.38
2022-12-23T08:58:38.738Z,7.43
2022-12-23T09:01:26.817Z,7.48
2022-12-23T09:04:13.241Z,7.52
2022-12-23T09:06:59.564Z,7.57
2022-12-23T09:09:45.841Z,7.63
2022-12-23T09:12:32.282Z,7.68
2022-12-23T09:15:18.839Z,7.72
2022-12-23T09:18:05.991Z,7.77
2022-12-23T09:21:03.099Z,7.78
2022-12-23T09:23:49.694Z,7.80
2022-12-23T09:26:36.211Z,7.84
2022-12-23T09:29:23.198Z,7.86
2022-12-23T09:32:09.727Z,7.88
2022-12-23T09:34:57.508Z,7.88
2022-12-23T09:37:44.237Z,7.90
2022-12-23T09:40:32.397Z,7.95
2022-12-23T09:43:34.812Z,7.96
2022-12-23T09:46:25.539Z,8.00
2022-12-23T09:49:13.157Z,8.02
2022-12-23T09:52:03.984Z,8.06
2022-12-23T09:54:52.792Z,8.09
2022-12-23T09:58:01.118Z,8.09
2022-12-23T10:00:56.976Z,8.07
2022-12-23T10:04:15.287Z,8.10
2022-12-23T10:07:04.303Z,8.12
2022-12-23T10:09:51.423Z,8.17
2022-12-23T10:12:42.324Z,8.20
2022-12-23T10:15:38.152Z,8.27
2022-12-23T10:18:28.684Z,8.29
2022-12-23T10:21:42.254Z,8.30
2022-12-23T10:24:37.971Z,8.31
2022-12-23T10:27:32.273Z,8.30
2022-12-23T10:30:54.007Z,8.28
2022-12-23T10:33:36.663Z,8.26
2022-12-23T10:36:41.145Z,8.27
2022-12-23T10:39:42.381Z,8.29
2022-12-23T10:42:34.074Z,8.35
2022-12-23T10:45:41.399Z,8.42
2022-12-23T10:48:40.032Z,8.44
2022-12-23T10:51:34.380Z,8.43
2022-12-23T10:54:31.026Z,8.43
2022-12-23T10:57:18.145Z,8.47
2022-12-23T11:00:17.210Z,8.50
2022-12-23T11:03:13.537Z,8.56
2022-12-23T11:06:00.006Z,8.61
2022-12-23T11:08:46.071Z,8.63
2022-12-23T11:11:54.328Z,8.68
2022-12-23T11:14:41.504Z,8.74
2022-12-23T11:17:29.705Z,8.76
2022-12-23T11:20:17.772Z,8.80
2022-12-23T11:23:06.140Z,8.81
2022-12-23T11:26:13.429Z,8.81
2022-12-23T11:29:07.655Z,8.85
2022-12-23T11:31:54.171Z,8.87
2022-12-23T11:34:40.405Z,8.89
2022-12-23T11:37:47.540Z,8.92
2022-12-23T11:40:36.091Z,8.94
2022-12-23T11:43:23.415Z,8.94
2022-12-23T11:46:35.619Z,8.96
2022-12-23T11:49:31.587Z,9.00
2022-12-23T11:52:19.687Z,9.07
2022-12-23T11:55:07.170Z,9.15
2022-12-23T11:57:53.755Z,9.16
2022-12-23T12:00:41.300Z,9.15
2022-12-23T12:03:30.931Z,9.12
2022-12-23T12:06:17.199Z,9.11
2022-12-23T12:09:03.795Z,9.13
2022-12-23T12:11:55.132Z,9.16
2022-12-23T12:14:46.936Z,9.19
2022-12-23T12:17:40.726Z,9.20
2022-12-23T12:20:44.333Z,9.19
2022-12-23T12:24:08.134Z,9.20
2022-12-23T12:27:01.386Z,9.18
2022-12-23T12:29:55.629Z,9.20
2022-12-23T12:33:01.059Z,9.24
2022-12-23T12:35:53.607Z,9.27
2022-12-23T12:38:40.702Z,9.30
2022-12-23T12:41:34.507Z,9.33
2022-12-23T12:44:32.135Z,9.30
2022-12-23T12:50:34.083Z,9.31
2022-12-23T12:53:21.146Z,9.29
2022-12-23T12:56:12.534Z,9.28
2022-12-23T12:58:58.886Z,9.28
2022-12-23T13:01:53.144Z,9.28
2022-12-23T13:05:03.508Z,9.29
2022-12-23T13:08:08.970Z,9.28
2022-12-23T13:10:57.780Z,9.26
2022-12-23T13:14:26.318Z,9.23
2022-12-23T13:17:21.015Z,9.22
2022-12-23T13:20:19.937Z,9.25
2022-12-23T13:23:42.146Z,9.27
2022-12-23T13:26:40.521Z,9.30
2022-12-23T13:29:42.355Z,9.35
2022-12-23T13:32:28.837Z,9.38
2022-12-23T13:35:23.681Z,9.41
2022-12-23T13:38:50.054Z,9.44
2022-12-23T13:41:40.764Z,9.45
2022-12-23T13:44:28.070Z,9.45
2022-12-23T13:47:21.243Z,9.46
2022-12-23T13:50:12.644Z,9.48
2022-12-23T13:53:16.304Z,9.49
2022-12-23T13:56:11.852Z,9.49
2022-12-23T13:58:58.596Z,9.50
2022-12-23T14:01:47.770Z,9.50
2022-12-23T14:04:59.050Z,9.48
2022-12-23T14:07:45.308Z,9.47
2022-12-23T14:10:32.075Z,9.46
2022-12-23T14:13:18.712Z,9.41
2022-12-23T14:16:11.082Z,9.36
2022-12-23T14:19:12.472Z,9.33
2022-12-23T14:22:11.866Z,9.33
2022-12-23T14:25:29.488Z,9.29
2022-12-23T14:28:26.653Z,9.28
2022-12-23T14:31:29.205Z,9.26
2022-12-23T14:34:18.567Z,9.25
2022-12-23T14:37:24.853Z,9.27
2022-12-23T14:40:39.563Z,9.24
2022-12-23T14:43:27.221Z,9.24
2022-12-23T14:46:43.278Z,9.24
2022-12-23T14:49:41.192Z,9.24
2022-12-23T14:52:48.077Z,9.26
2022-12-23T14:55:40.197Z,9.28
2022-12-23T14:58:30.015Z,9.33
2022-12-23T15:01:37.271Z,9.31
2022-12-23T15:04:26.353Z,9.29
2022-12-23T15:07:27.771Z,9.25
2022-12-23T15:10:22.514Z,9.19
2022-12-23T15:13:11.293Z,9.17
2022-12-23T15:16:01.817Z,9.17
2022-12-23T15:18:55.697Z,9.17
2022-12-23T15:21:44.906Z,9.19
2022-12-23T15:24:33.442Z,9.17
2022-12-23T15:27:28.740Z,9.16
2022-12-23T15:30:16.272Z,9.14
2022-12-23T15:33:21.471Z,9.12
2022-12-23T15:36:12.750Z,9.08
2022-12-23T15:39:00.359Z,9.08
2022-12-23T15:41:47.354Z,9.07
2022-12-23T15:44:36.677Z,9.04
2022-12-23T15:47:30.292Z,9.02
2022-12-23T15:50:17.757Z,9.02
2022-12-23T15:53:05.411Z,9.02
2022-12-23T15:55:51.535Z,9.03
2022-12-23T15:58:39.384Z,9.03
2022-12-23T16:01:26.480Z,9.02
2022-12-23T16:04:18.709Z,9.01
2022-12-23T16:07:05.315Z,9.00
2022-12-23T16:09:53.688Z,9.01
2022-12-23T16:12:40.005Z,9.03
2022-12-23T16:15:27.565Z,9.04
2022-12-23T16:18:19.572Z,9.03
2022-12-23T16:21:06.189Z,9.01
2022-12-23T16:23:52.506Z,8.99
2022-12-23T16:27:01.299Z,8.96
2022-12-23T16:30:07.730Z,8.93
2022-12-23T16:32:55.625Z,8.92
2022-12-23T16:35:42.775Z,8.90
2022-12-23T16:38:29.094Z,8.91
2022-12-23T16:41:15.500Z,8.92
2022-12-23T16:44:01.881Z,8.94
2022-12-23T16:46:49.313Z,8.93
2022-12-23T16:49:35.948Z,8.89
2022-12-23T16:52:22.605Z,8.84
2022-12-23T16:55:14.655Z,8.84
2022-12-23T16:58:00.937Z,8.81
2022-12-23T17:00:47.519Z,8.81
2022-12-23T17:03:33.741Z,8.81
2022-12-23T17:06:20.085Z,8.82
2022-12-23T17:09:07.177Z,8.84
2022-12-23T17:11:53.843Z,8.88
2022-12-23T17:14:40.391Z,8.90
2022-12-23T17:17:26.997Z,8.92
2022-12-23T17:20:13.076Z,8.94
2022-12-23T17:22:59.379Z,8.93
2022-12-23T17:25:45.996Z,8.90
2022-12-23T17:28:32.580Z,8.82
2022-12-23T17:31:26.250Z,8.80
2022-12-23T17:34:17.569Z,8.81
2022-12-23T17:37:11.974Z,8.83
2022-12-23T17:39:58.246Z,8.79
2022-12-23T17:42:44.641Z,8.77
2022-12-23T17:45:31.928Z,8.77
2022-12-23T17:48:23.101Z,8.78
2022-12-23T17:51:15.528Z,8.78
2022-12-23T17:54:02.235Z,8.75
2022-12-23T17:56:48.621Z,8.71
2022-12-23T17:59:35.217Z,8.64
2022-12-23T18:02:26.650Z,8.60
2022-12-23T18:05:25.968Z,8.62
2022-12-23T18:08:12.750Z,8.59
2022-12-23T18:10:59.411Z,8.51
2022-12-23T18:13:47.139Z,8.45
2022-12-23T18:16:33.675Z,8.39
2022-12-23T18:19:20.550Z,8.37
2022-12-23T18:22:06.859Z,8.37
2022-12-23T18:24:58.937Z,8.39
2022-12-23T18:27:45.920Z,8.40
2022-12-23T18:30:32.159Z,8.42
2022-12-23T18:33:18.340Z,8.46
2022-12-23T18:36:05.189Z,8.58
2022-12-23T18:38:52.636Z,8.64
2022-12-23T18:41:40.055Z,8.61
2022-12-23T18:44:26.766Z,8.58
2022-12-23T18:47:13.065Z,8.61
2022-12-23T18:49:59.654Z,8.60
2022-12-23T18:52:46.707Z,8.57
2022-12-23T18:55:33.419Z,8.57
2022-12-23T18:58:19.617Z,8.68
2022-12-23T19:01:06.026Z,8.78
2022-12-23T19:03:52.421Z,8.80
2022-12-23T19:06:39.147Z,8.78
2022-12-23T19:09:25.382Z,8.68
2022-12-23T19:12:12.091Z,8.62
2022-12-23T19:14:58.623Z,8.54
2022-12-23T19:17:45.046Z,8.45
2022-12-23T19:20:31.270Z,8.41
2022-12-23T19:23:17.862Z,8.43
2022-12-23T19:26:06.301Z,8.45
2022-12-23T19:28:52.630Z,8.47
2022-12-23T19:31:39.539Z,8.50
2022-12-23T19:34:26.027Z,8.53
2022-12-23T19:37:12.520Z,8.45
2022-12-23T19:39:59.400Z,8.32
2022-12-23T19:42:45.921Z,8.17
2022-12-23T19:45:32.450Z,8.03
2022-12-23T19:48:18.941Z,7.97
2022-12-23T19:51:07.874Z,8.01
2022-12-23T19:53:54.374Z,8.04
2022-12-23T19:56:40.734Z,7.97
2022-12-23T19:59:27.423Z,7.97
2022-12-23T20:02:15.500Z,7.96
2022-12-23T20:05:01.744Z,7.91
2022-12-23T20:07:47.888Z,7.87
2022-12-23T20:10:34.122Z,7.82
2022-12-23T20:13:20.348Z,7.82
2022-12-23T20:16:07.096Z,7.80
2022-12-23T20:18:53.567Z,7.79
2022-12-23T20:21:40.176Z,7.77
2022-12-23T20:24:26.732Z,7.83
2022-12-23T20:27:15.739Z,7.95
2022-12-23T20:30:02.577Z,7.99
2022-12-23T20:32:48.947Z,7.99
2022-12-23T20:35:36.332Z,7.99
2022-12-23T20:38:22.938Z,8.05
2022-12-23T20:41:10.980Z,8.07
2022-12-23T20:44:32.485Z,8.12
2022-12-23T20:47:07.070Z,8.01
2022-12-23T20:49:53.564Z,7.90
2022-12-23T20:52:39.932Z,7.82
2022-12-23T20:55:26.230Z,7.75
2022-12-23T20:58:31.275Z,7.70
2022-12-23T21:01:17.770Z,7.67
2022-12-23T21:04:15.948Z,7.66
2022-12-23T21:07:02.315Z,7.66
2022-12-23T21:09:48.448Z,7.61
2022-12-23T21:12:34.676Z,7.59
2022-12-23T21:15:22.824Z,7.61
2022-12-23T21:18:09.174Z,7.61
2022-12-23T21:20:59.927Z,7.60
2022-12-23T21:23:46.709Z,7.57
2022-12-23T21:26:34.161Z,7.55
2022-12-23T21:29:20.667Z,7.55
2022-12-23T21:32:07.038Z,7.56
2022-12-23T21:34:53.640Z,7.51
2022-12-23T21:37:40.104Z,7.49
2022-12-23T21:40:27.174Z,7.47
2022-12-23T21:43:13.654Z,7.47
2022-12-23T21:46:04.568Z,7.51
2022-12-23T21:48:51.020Z,7.54
2022-12-23T21:51:40.684Z,7.56
2022-12-23T21:54:27.461Z,7.55
2022-12-23T21:57:13.959Z,7.50
2022-12-23T22:00:00.350Z,7.49
2022-12-23T22:02:46.999Z,7.53
2022-12-23T22:05:33.190Z,7.51
2022-12-23T22:08:19.734Z,7.45
2022-12-23T22:11:07.591Z,7.45
2022-12-23T22:13:55.134Z,7.44
2022-12-23T22:16:41.615Z,7.44
2022-12-23T22:19:28.018Z,7.48
2022-12-23T22:22:14.411Z,7.49
2022-12-23T22:25:00.564Z,7.50
2022-12-23T22:27:47.177Z,7.48
2022-12-23T22:30:33.265Z,7.45
2022-12-23T22:33:21.169Z,7.45
2022-12-23T22:36:09.413Z,7.45
2022-12-23T22:38:57.407Z,7.42
2022-12-23T22:41:43.918Z,7.40
2022-12-23T22:44:30.160Z,7.41
2022-12-23T22:47:16.333Z,7.40
2022-12-23T22:50:03.047Z,7.41
2022-12-23T22:52:49.313Z,7.42
2022-12-23T22:55:35.311Z,7.44
2022-12-23T22:58:21.752Z,7.47
2022-12-23T23:01:13.065Z,7.49
2022-12-23T23:04:00.818Z,7.49
2022-12-23T23:06:47.186Z,7.47
2022-12-23T23:09:34.090Z,7.50
2022-12-23T23:12:20.605Z,7.55
2022-12-23T23:15:07.725Z,7.56
2022-12-23T23:17:55.362Z,7.53
2022-12-23T23:20:42.039Z,7.52
2022-12-23T23:23:28.340Z,7.50
2022-12-23T23:26:15.107Z,7.48
2022-12-23T23:29:01.543Z,7.48
2022-12-23T23:31:47.940Z,7.51
2022-12-23T23:34:34.718Z,7.55
2022-12-23T23:37:21.447Z,7.54
2022-12-23T23:40:08.245Z,7.54
2022-12-23T23:42:54.847Z,7.51
2022-12-23T23:45:41.420Z,7.44
2022-12-23T23:48:27.609Z,7.44
2022-12-23T23:51:14.035Z,7.46
2022-12-23T23:54:00.652Z,7.50
2022-12-23T23:56:46.810Z,7.52
2022-12-23T23:59:33.253Z,7.51
